.
WxDataArchive / Data Records for 2011-10-11
2011-10-10 October 2011 2011-10-12

Data Records for Tuesday, 11 October 2011

Time	Temp	Chill	HIndex	Humid	Dewpt	 Wind 	HiWind	WindDir	Rain 	Barom 
-----	----	-----	------	-----	-----	------	------	-------	-----	----- 
00:00	56.7	56.7	56.7	70	47.0	0	0	---	0.00	30.109 
00:05	56.6	56.6	56.6	70	46.9	0	0	---	0.00	30.109 
00:10	56.3	56.3	56.3	71	47.0	0	0	---	0.00	30.109 
00:15	56.2	56.2	56.2	72	47.3	0	0	---	0.00	30.106 
00:20	56.0	56.0	56.0	72	47.1	0	0	---	0.00	30.106 
00:25	55.9	55.9	55.9	72	47.0	0	0	---	0.00	30.106 
00:30	55.7	55.7	55.7	73	47.2	0	0	---	0.00	30.104 
00:35	55.6	55.6	55.6	74	47.4	0	0	---	0.00	30.104 
00:40	55.4	55.4	55.4	74	47.3	0	0	---	0.00	30.104 
00:45	55.3	55.3	55.3	75	47.5	0	0	---	0.00	30.100 
00:50	55.3	55.3	55.3	76	47.9	0	0	---	0.00	30.100 
00:55	55.3	55.3	55.3	76	47.9	0	0	---	0.00	30.100 
01:00	55.3	55.3	55.3	77	48.2	0	0	---	0.00	30.094 
01:05	55.1	55.1	55.1	78	48.4	0	0	---	0.00	30.094 
01:10	55.1	55.1	55.1	78	48.4	0	0	---	0.00	30.094 
01:15	55.0	55.0	55.0	79	48.6	0	0	---	0.00	30.088 
01:20	54.8	54.8	54.8	79	48.4	0	0	---	0.00	30.088 
01:25	54.5	54.5	54.5	80	48.5	0	0	---	0.00	30.088 
01:30	54.4	54.4	54.4	81	48.7	0	0	---	0.00	30.089 
01:35	54.1	54.1	54.1	81	48.4	0	0	---	0.00	30.089 
01:40	53.9	53.9	53.9	82	48.5	0	0	---	0.00	30.089 
01:45	53.8	53.8	53.8	83	48.8	0	0	---	0.00	30.089 
01:50	53.6	53.6	53.6	84	48.9	0	0	---	0.00	30.089 
01:55	53.5	53.5	53.5	85	49.1	0	0	---	0.00	30.089 
02:00	53.3	53.3	53.3	85	48.9	0	0	---	0.00	30.086 
02:05	53.2	53.2	53.2	85	48.8	0	0	---	0.00	30.086 
02:10	53.1	53.1	53.1	86	49.0	0	0	---	0.00	30.086 
02:15	53.1	53.1	53.1	86	49.0	0	0	---	0.00	30.087 
02:20	52.9	52.9	52.9	87	49.1	0	0	---	0.00	30.087 
02:25	52.9	52.9	52.9	88	49.4	0	0	---	0.00	30.087 
02:30	52.9	52.9	52.9	88	49.4	0	0	---	0.00	30.087 
02:35	52.9	52.9	52.9	88	49.4	0	0	---	0.00	30.087 
02:40	52.9	52.9	52.9	89	49.7	0	0	---	0.00	30.087 
02:45	52.9	52.9	52.9	89	49.7	0	0	---	0.00	30.087 
02:50	52.9	52.9	52.9	89	49.7	0	0	---	0.00	30.087 
02:55	52.8	52.8	52.8	89	49.6	0	0	---	0.00	30.087 
03:00	52.6	52.6	52.6	90	49.7	0	0	---	0.00	30.083 
03:05	52.5	52.5	52.5	90	49.7	0	0	---	0.00	30.083 
03:10	52.3	52.3	52.3	90	49.5	0	0	---	0.00	30.083 
03:15	52.2	52.2	52.2	90	49.4	0	0	---	0.00	30.077 
03:20	52.0	52.0	52.0	90	49.2	0	0	---	0.00	30.077 
03:25	51.9	51.9	51.9	90	49.1	0	0	---	0.00	30.077 
03:30	51.7	51.7	51.7	90	48.9	0	0	---	0.00	30.074 
03:35	51.6	51.6	51.6	90	48.8	0	0	---	0.00	30.074 
03:40	51.3	51.3	51.3	91	48.8	0	0	---	0.00	30.074 
03:45	51.1	51.1	51.1	91	48.6	0	0	---	0.00	30.075 
03:50	51.0	51.0	51.0	91	48.5	0	0	---	0.00	30.075 
03:55	50.8	50.8	50.8	91	48.3	0	0	---	0.00	30.075 
04:00	50.7	50.7	50.7	91	48.2	0	0	---	0.00	30.073 
04:05	50.5	50.5	50.5	91	48.0	0	0	---	0.00	30.073 
04:10	50.4	50.4	50.4	91	47.9	0	0	---	0.00	30.073 
04:15	50.2	50.2	50.2	92	48.0	0	0	---	0.00	30.072 
04:20	50.2	50.2	50.2	92	48.0	0	0	---	0.00	30.072 
04:25	50.1	50.1	50.1	92	47.9	0	0	---	0.00	30.072 
04:30	50.1	50.1	50.1	92	47.9	0	0	---	0.00	30.073 
04:35	49.9	49.9	49.9	92	47.7	0	0	---	0.00	30.073 
04:40	49.8	49.8	49.8	92	47.6	0	0	---	0.00	30.073 
04:45	49.8	49.8	49.8	92	47.6	0	0	---	0.00	30.071 
04:50	49.6	49.6	49.6	92	47.4	0	0	---	0.00	30.071 
04:55	49.5	49.5	49.5	92	47.3	0	0	---	0.00	30.071 
05:00	49.4	49.4	49.4	92	47.2	0	0	---	0.00	30.073 
05:05	49.4	49.4	49.4	92	47.2	0	0	---	0.00	30.073 
05:10	49.2	49.2	49.2	93	47.3	0	0	---	0.00	30.073 
05:15	49.2	49.2	49.2	93	47.3	0	0	---	0.00	30.076 
05:20	49.2	49.2	49.2	93	47.3	0	0	---	0.00	30.076 
05:25	49.1	49.1	49.1	93	47.2	0	0	---	0.00	30.076 
05:30	48.9	48.9	48.9	93	47.0	0	0	---	0.00	30.078 
05:35	48.9	48.9	48.9	93	47.0	0	0	---	0.00	30.078 
05:40	48.8	48.8	48.8	93	46.9	0	0	---	0.00	30.078 
05:45	48.8	48.8	48.8	93	46.9	0	0	---	0.00	30.078 
05:50	48.8	48.8	48.8	93	46.9	0	0	---	0.00	30.078 
05:55	48.8	48.8	48.8	93	46.9	0	0	---	0.00	30.078 
06:00	48.8	48.8	48.8	93	46.9	0	0	---	0.00	30.078 
06:05	48.6	48.6	48.6	93	46.7	0	0	---	0.00	30.078 
06:10	48.5	48.5	48.5	93	46.6	0	0	---	0.00	30.078 
06:15	48.5	48.5	48.5	93	46.6	0	0	---	0.00	30.081 
06:20	48.3	48.3	48.3	94	46.7	0	0	---	0.00	30.081 
06:25	48.3	48.3	48.3	94	46.7	0	0	---	0.00	30.081 
06:30	48.3	48.3	48.3	94	46.7	0	0	---	0.00	30.083 
06:35	48.3	48.3	48.3	94	46.7	0	0	---	0.00	30.083 
06:40	48.2	48.2	48.2	94	46.6	0	0	---	0.00	30.083 
06:45	48.2	48.2	48.2	94	46.6	0	0	---	0.00	30.083 
06:50	48.2	48.2	48.2	94	46.6	0	0	---	0.00	30.083 
06:55	48.0	48.0	48.0	94	46.4	0	0	---	0.00	30.083 
07:00	48.0	48.0	48.0	94	46.4	0	0	---	0.00	30.082 
07:05	47.9	47.9	47.9	94	46.3	0	0	---	0.00	30.082 
07:10	47.9	47.9	47.9	94	46.3	0	0	---	0.00	30.082 
07:15	47.7	47.7	47.7	94	46.1	0	0	---	0.00	30.086 
07:20	47.7	47.7	47.7	94	46.1	0	0	---	0.00	30.086 
07:25	47.6	47.6	47.6	94	46.0	0	0	---	0.00	30.086 
07:30	47.6	47.6	47.6	94	46.0	0	0	---	0.00	30.088 
07:35	47.6	47.6	47.6	94	46.0	0	0	---	0.00	30.088 
07:40	47.4	47.4	47.4	94	45.8	0	0	---	0.00	30.088 
07:45	47.4	47.4	47.4	94	45.8	0	0	---	0.00	30.090 
07:50	47.3	47.3	47.3	94	45.7	0	0	---	0.00	30.090 
07:55	47.1	47.1	47.1	94	45.5	0	0	---	0.00	30.090 
08:00	47.1	47.1	47.1	95	45.7	0	0	---	0.00	30.093 
08:05	47.3	47.3	47.3	95	45.9	0	0	---	0.00	30.093 
08:10	47.3	47.3	47.3	95	45.9	0	0	---	0.00	30.093 
08:15	47.9	47.9	47.9	96	46.8	0	1	112	0.00	30.096 
08:20	48.6	48.6	48.6	96	47.5	0	0	---	0.00	30.096 
08:25	49.2	49.2	49.2	96	48.1	0	2	112	0.00	30.096 
08:30	49.6	49.6	49.6	96	48.5	0	2	112	0.00	30.093 
08:35	49.9	49.9	49.9	95	48.5	0	1	112	0.00	30.093 
08:40	50.2	50.2	50.2	96	49.1	0	1	112	0.00	30.093 
08:45	50.5	50.5	50.5	95	49.1	0	2	112	0.00	30.089 
08:50	50.8	50.8	50.8	95	49.4	0	2	112	0.00	30.089 
08:55	51.0	51.0	51.0	95	49.6	0	1	112	0.00	30.089 
09:00	51.3	51.3	51.3	95	49.9	0	1	112	0.00	30.088 
09:05	51.4	51.4	51.4	95	50.0	0	1	112	0.00	30.088 
09:10	51.9	51.9	51.9	95	50.5	0	1	112	0.00	30.088 
09:15	52.3	52.3	52.3	94	50.6	0	2	112	0.00	30.090 
09:20	52.8	52.8	52.8	94	51.1	0	1	112	0.00	30.090 
09:25	53.2	53.2	53.2	93	51.2	0	1	112	0.00	30.090 
09:30	53.8	53.8	53.8	92	51.5	0	1	112	0.00	30.088 
09:35	54.4	54.4	54.4	91	51.8	0	1	112	0.00	30.088 
09:40	54.8	54.8	54.8	90	51.9	0	2	112	0.00	30.088 
09:45	55.4	55.4	55.4	88	51.9	0	1	112	0.00	30.088 
09:50	55.9	55.9	55.9	86	51.8	0	3	112	0.00	30.088 
09:55	56.2	56.2	56.2	86	52.1	0	1	112	0.00	30.088 
10:00	56.7	56.7	56.7	85	52.2	0	1	112	0.00	30.085 
10:05	57.5	57.5	57.5	83	52.4	0	2	112	0.00	30.085 
10:10	58.4	58.4	58.4	81	52.6	0	1	112	0.00	30.085 
10:15	59.5	59.5	59.5	78	52.6	1	3	112	0.00	30.085 
10:20	60.4	60.4	60.4	76	52.8	1	3	112	0.00	30.085 
10:25	61.0	61.0	61.0	75	53.0	1	3	90	0.00	30.085 
10:30	61.8	61.8	61.8	73	53.0	1	3	90	0.00	30.075 
10:35	62.7	62.7	62.7	72	53.5	0	1	90	0.00	30.075 
10:40	63.5	63.5	63.5	69	53.1	1	3	112	0.00	30.075 
10:45	64.2	64.2	64.2	68	53.4	1	3	112	0.00	30.068 
10:50	64.8	64.8	64.8	67	53.6	1	3	112	0.00	30.068 
10:55	65.3	65.3	65.3	67	54.1	1	4	112	0.00	30.068 
11:00	65.6	65.6	65.6	65	53.5	2	4	90	0.00	30.063 
11:05	66.0	66.0	66.0	66	54.3	1	3	90	0.00	30.063 
11:10	66.4	66.4	66.4	65	54.3	1	4	90	0.00	30.063 
11:15	67.1	67.1	67.1	64	54.5	0	3	90	0.00	30.062 
11:20	67.9	67.9	67.9	62	54.4	1	3	90	0.00	30.062 
11:25	68.4	68.4	68.4	61	54.4	1	3	90	0.00	30.062 
11:30	69.1	69.1	69.1	56	52.7	0	1	90	0.00	30.051 
11:35	69.6	69.6	69.6	57	53.7	1	4	90	0.00	30.051 
11:40	70.3	70.3	70.3	55	53.4	0	2	90	0.00	30.051 
11:45	71.1	71.1	71.1	55	54.1	1	4	90	0.00	30.047 
11:50	71.6	71.6	71.6	53	53.5	1	2	90	0.00	30.047 
11:55	72.1	72.1	72.1	51	53.0	0	2	112	0.00	30.047 
12:00	72.7	72.7	72.7	50	53.0	1	3	112	0.00	30.042 
12:05	73.2	73.2	73.2	49	52.9	1	3	68	0.00	30.042 
12:10	73.5	73.5	73.5	48	52.6	1	3	68	0.00	30.042 
12:15	73.7	73.7	73.7	47	52.2	1	3	68	0.00	30.043 
12:20	74.2	74.2	74.2	46	52.1	0	2	68	0.00	30.043 
12:25	74.9	74.9	74.9	46	52.7	0	1	112	0.00	30.043 
12:30	75.4	75.4	77.7	42	50.7	0	1	135	0.00	30.035 
12:35	75.8	75.8	77.7	40	49.7	0	1	135	0.00	30.035 
12:40	76.0	76.0	77.9	43	51.9	0	0	---	0.00	30.035 
12:45	76.3	76.3	78.0	41	50.8	0	0	---	0.00	30.031 
12:50	76.7	76.7	78.1	39	49.9	0	2	135	0.00	30.031 
12:55	76.8	76.8	78.2	41	51.3	1	3	135	0.00	30.031 
13:00	77.0	77.0	78.2	40	50.8	0	2	135	0.00	30.025 
13:05	77.2	77.2	78.3	39	50.3	0	2	135	0.00	30.025 
13:10	77.4	77.4	78.2	36	48.3	1	4	135	0.00	30.025 
13:15	77.2	77.2	78.1	35	47.4	1	4	112	0.00	30.026 
13:20	77.0	77.0	78.1	37	48.7	1	3	112	0.00	30.026 
13:25	77.0	77.0	78.1	38	49.4	0	2	112	0.00	30.026 
13:30	77.0	77.0	78.1	38	49.4	0	3	112	0.00	30.021 
13:35	77.2	77.2	78.1	35	47.4	1	3	112	0.00	30.021 
13:40	77.2	77.2	78.0	34	46.6	1	3	112	0.00	30.021 
13:45	77.0	77.0	78.0	35	47.2	1	4	90	0.00	30.015 
13:50	77.2	77.2	78.1	35	47.4	0	2	90	0.00	30.015 
13:55	77.4	77.4	77.9	31	44.4	1	4	90	0.00	30.015 
14:00	77.6	77.6	78.1	33	46.2	0	2	112	0.00	30.009 
14:05	77.7	77.7	78.2	33	46.3	1	3	112	0.00	30.009 
14:10	77.7	77.7	78.2	33	46.3	2	5	90	0.00	30.009 
14:15	77.6	77.6	78.1	32	45.4	1	4	90	0.00	30.004 
14:20	77.4	77.4	78.1	34	46.8	2	5	90	0.00	30.004 
14:25	77.4	77.4	77.8	30	43.5	1	3	135	0.00	30.004 
14:30	77.6	77.6	78.0	31	44.5	1	3	158	0.00	30.002 
14:35	77.6	77.6	78.1	32	45.4	2	7	135	0.00	30.002 
14:40	77.4	77.4	77.7	28	41.7	2	5	112	0.00	30.002 
14:45	77.4	77.4	77.8	30	43.5	1	4	68	0.00	29.999 
14:50	77.4	77.4	78.0	32	45.2	1	4	112	0.00	29.999 
14:55	77.4	77.4	77.7	28	41.7	2	7	90	0.00	29.999 
15:00	77.4	77.4	78.0	32	45.2	1	5	112	0.00	29.996 
15:05	77.2	77.2	77.9	32	45.0	1	4	68	0.00	29.996 
15:10	77.0	77.0	77.8	32	44.9	1	5	135	0.00	29.996 
15:15	77.0	77.0	77.7	31	44.0	1	4	112	0.00	29.997 
15:20	77.0	77.0	77.9	33	45.7	2	7	112	0.00	29.997 
15:25	76.8	76.8	77.7	32	44.7	1	6	112	0.00	29.997 
15:30	77.0	77.0	77.9	34	46.5	1	4	112	0.00	29.994 
15:35	77.0	77.0	77.9	33	45.7	1	4	112	0.00	29.994 
15:40	77.0	77.0	77.9	34	46.5	1	6	90	0.00	29.994 
15:45	77.0	77.0	77.9	33	45.7	1	5	90	0.00	29.994 
15:50	76.8	76.8	77.8	33	45.5	1	4	135	0.00	29.994 
15:55	76.8	76.8	77.8	34	46.3	2	6	90	0.00	29.994 
16:00	76.7	76.7	77.7	32	44.6	1	4	112	0.00	29.989 
16:05	76.7	76.7	77.7	32	44.6	1	3	112	0.00	29.989 
16:10	76.7	76.7	77.7	32	44.6	1	5	112	0.00	29.989 
16:15	76.7	76.7	77.7	32	44.6	1	3	90	0.00	29.987 
16:20	76.7	76.7	77.7	32	44.6	0	3	135	0.00	29.987 
16:25	76.7	76.7	77.7	32	44.6	2	4	112	0.00	29.987 
16:30	76.7	76.7	77.6	31	43.8	1	3	158	0.00	29.986 
16:35	76.8	76.8	77.7	32	44.7	1	3	202	0.00	29.986 
16:40	76.8	76.8	77.7	31	43.9	1	4	68	0.00	29.986 
16:45	76.8	76.8	77.7	31	43.9	1	3	90	0.00	29.986 
16:50	76.8	76.8	77.7	31	43.9	1	5	90	0.00	29.986 
16:55	76.8	76.8	77.7	32	44.7	0	3	202	0.00	29.986 
17:00	76.7	76.7	77.7	33	45.4	1	3	112	0.00	29.985 
17:05	76.8	76.8	77.8	33	45.5	1	3	112	0.00	29.985 
17:10	76.8	76.8	77.8	33	45.5	1	2	112	0.00	29.985 
17:15	76.7	76.7	77.7	33	45.4	1	4	112	0.00	29.983 
17:20	76.7	76.7	77.7	32	44.6	1	4	90	0.00	29.983 
17:25	76.5	76.5	77.6	32	44.4	1	4	90	0.00	29.983 
17:30	76.3	76.3	77.5	32	44.3	1	4	135	0.00	29.984 
17:35	76.1	76.1	77.4	32	44.1	1	4	135	0.00	29.984 
17:40	76.0	76.0	77.5	34	45.6	1	4	90	0.00	29.984 
17:45	75.8	75.8	77.5	34	45.4	1	4	90	0.00	29.982 
17:50	75.8	75.8	77.5	34	45.4	1	4	90	0.00	29.982 
17:55	75.6	75.6	77.4	34	45.2	2	4	90	0.00	29.982 
18:00	75.6	75.6	77.4	34	45.2	1	3	112	0.00	29.982 
18:05	75.4	75.4	77.3	33	44.3	1	3	158	0.00	29.982 
18:10	75.4	75.4	77.3	34	45.1	1	3	90	0.00	29.982 
18:15	75.3	75.3	77.4	35	45.7	1	2	112	0.00	29.983 
18:20	75.1	75.1	77.3	35	45.6	0	3	112	0.00	29.983 
18:25	74.9	74.9	74.9	35	45.4	0	2	158	0.00	29.983 
18:30	74.6	74.6	74.6	35	45.1	0	2	158	0.00	29.982 
18:35	74.2	74.2	74.2	36	45.5	0	1	158	0.00	29.982 
18:40	73.9	73.9	73.9	36	45.2	0	1	158	0.00	29.982 
18:45	73.5	73.5	73.5	37	45.6	0	0	---	0.00	29.980 
18:50	73.0	73.0	73.0	38	45.9	0	0	---	0.00	29.980 
18:55	72.5	72.5	72.5	39	46.1	0	1	158	0.00	29.980 
19:00	72.0	72.0	72.0	40	46.3	0	0	---	0.00	29.981 
19:05	71.3	71.3	71.3	41	46.4	0	0	---	0.00	29.981 
19:10	70.6	70.6	70.6	42	46.4	0	0	---	0.00	29.981 
19:15	69.9	69.9	69.9	43	46.4	0	0	---	0.00	29.980 
19:20	69.3	69.3	69.3	45	47.0	0	0	---	0.00	29.980 
19:25	68.6	68.6	68.6	46	47.0	0	0	---	0.00	29.980 
19:30	67.8	67.8	67.8	47	46.8	0	0	---	0.00	29.982 
19:35	67.1	67.1	67.1	49	47.3	0	0	---	0.00	29.982 
19:40	66.4	66.4	66.4	51	47.7	0	0	---	0.00	29.982 
19:45	66.0	66.0	66.0	53	48.4	0	0	---	0.00	29.981 
19:50	65.5	65.5	65.5	54	48.4	0	0	---	0.00	29.981 
19:55	64.8	64.8	64.8	55	48.2	0	0	---	0.00	29.981 
20:00	64.5	64.5	64.5	56	48.4	0	0	---	0.00	29.985 
20:05	64.0	64.0	64.0	58	48.9	0	0	---	0.00	29.985 
20:10	63.5	63.5	63.5	59	48.9	0	0	---	0.00	29.985 
20:15	63.2	63.2	63.2	60	49.1	0	0	---	0.00	29.982 
20:20	62.7	62.7	62.7	61	49.1	0	0	---	0.00	29.982 
20:25	62.4	62.4	62.4	62	49.2	0	0	---	0.00	29.982 
20:30	62.1	62.1	62.1	63	49.3	0	0	---	0.00	29.980 
20:35	61.8	61.8	61.8	64	49.5	0	0	---	0.00	29.980 
20:40	61.5	61.5	61.5	65	49.6	0	0	---	0.00	29.980 
20:45	61.2	61.2	61.2	66	49.7	0	0	---	0.00	29.979 
20:50	60.9	60.9	60.9	66	49.5	0	0	---	0.00	29.979 
20:55	60.5	60.5	60.5	68	49.9	0	0	---	0.00	29.979 
21:00	60.4	60.4	60.4	69	50.2	0	0	---	0.00	29.978 
21:05	60.1	60.1	60.1	69	49.9	0	0	---	0.00	29.978 
21:10	59.9	59.9	59.9	70	50.1	0	0	---	0.00	29.978 
21:15	59.8	59.8	59.8	70	50.0	0	0	---	0.00	29.974 
21:20	59.6	59.6	59.6	71	50.2	0	0	---	0.00	29.974 
21:25	59.6	59.6	59.6	73	50.9	0	0	---	0.00	29.974 
21:30	59.5	59.5	59.5	74	51.2	0	0	---	0.00	29.973 
21:35	59.3	59.3	59.3	73	50.6	0	0	---	0.00	29.973 
21:40	59.2	59.2	59.2	73	50.5	0	0	---	0.00	29.973 
21:45	59.0	59.0	59.0	74	50.7	0	0	---	0.00	29.975 
21:50	58.9	58.9	58.9	74	50.6	0	0	---	0.00	29.975 
21:55	58.7	58.7	58.7	73	50.1	0	0	---	0.00	29.975 
22:00	58.6	58.6	58.6	73	50.0	0	0	---	0.00	29.975 
22:05	58.4	58.4	58.4	73	49.8	0	0	---	0.00	29.975 
22:10	58.3	58.3	58.3	73	49.7	0	0	---	0.00	29.975 
22:15	58.3	58.3	58.3	73	49.7	0	0	---	0.00	29.969 
22:20	58.1	58.1	58.1	73	49.5	0	0	---	0.00	29.969 
22:25	58.1	58.1	58.1	73	49.5	0	0	---	0.00	29.969 
22:30	57.8	57.8	57.8	73	49.2	0	0	---	0.00	29.970 
22:35	57.6	57.6	57.6	73	49.0	0	0	---	0.00	29.970 
22:40	57.5	57.5	57.5	73	48.9	0	0	---	0.00	29.970 
22:45	57.3	57.3	57.3	74	49.1	0	0	---	0.00	29.971 
22:50	57.3	57.3	57.3	74	49.1	0	0	---	0.00	29.971 
22:55	57.2	57.2	57.2	74	49.0	0	0	---	0.00	29.971 
23:00	57.2	57.2	57.2	74	49.0	0	0	---	0.00	29.970 
23:05	57.0	57.0	57.0	74	48.8	0	0	---	0.00	29.970 
23:10	57.0	57.0	57.0	74	48.8	0	0	---	0.00	29.970 
23:15	57.0	57.0	57.0	74	48.8	0	0	---	0.00	29.963 
23:20	56.9	56.9	56.9	74	48.7	0	0	---	0.00	29.963 
23:25	56.9	56.9	56.9	75	49.1	0	0	---	0.00	29.963 
23:30	56.7	56.7	56.7	75	48.9	0	0	---	0.00	29.962 
23:35	56.6	56.6	56.6	75	48.8	0	0	---	0.00	29.962 
23:40	56.5	56.5	56.5	75	48.7	0	0	---	0.00	29.962 
23:45	56.5	56.5	56.5	76	49.0	0	0	---	0.00	29.962 
23:50	56.5	56.5	56.5	76	49.0	0	0	---	0.00	29.962 
23:55	56.5	56.5	56.5	76	49.0	0	0	---	0.00	29.962 

CoCoRaHS
IN-AL-39
A2 Web Hosting
Creative Commons License
GoDaddy
search engine by freefind advanced

loaded 2018-11-12 19:13:15 • last modified 2010-11-18 10:43:29
Privacy PolicyDisclaimer
• wx.awcolley.com is powered by PmWiki v.2002016 •
• all content (unless otherwise noted) © 2018 A W Colley